NWS Home NWS Lubbock West Texas Mesonet Central Sector Latest Conditions as of 0125 PM, Fri Nov 17, 2017

Latest   N   C   S   Daily Sum   3hrΔ   24hrΔ   Soil Data 
Site Map   24hr Precip   72hr Precip   Google Plot


Station Time of Last Temp Dew Pt. RH Wind Direction Wind Speed Wind Gust Max Wind Max Temp Min Temp Max RH Min RH Altimeter 1HR Rain Today's Rain Solar Rad Red Flag
Abernathy 5ENE  01:20 PM 85 24 11% SW1925 29 mph 254° @ 0110 PM 85 45 93 11 29.84" 0 0.00 653  
Aiken 3WSW  01:20 PM 84 26 12% W2226 28 mph 235° @ 1159 AM 84 40 93 12 29.84" 0 0.00 674  
Amherst 1NE  01:20 PM 82 22 11% W2029 31 mph 252° @ 1215 PM 82 48 79 10 29.86" 0 0.00 577 5
Anton 6SSW  01:20 PM 85 27 12% SW1924 28 mph 230° @ 1235 PM 85 47 84 12 29.84" 0 0.00 657  
Aspermont 3NE  01:20 PM 84 50 32% SW1218 22 mph 220° @ 0955 AM 84 51 98 30 29.80" 0 0.00 573  
Bootleg 11WNW  01:20 PM 79 21 11% W3240 46 mph 263° @ 0119 PM 79 48 76 11 29.85" 0 0.00 531 124
Brownfield 2S  01:20 PM 86 26 11% SW1623 25 mph 238° @ 1150 AM 87 50 83 11 29.86" 0 0.00 663  
Caprock Canyons State Park  01:20 PM 86 26 11% W2025 36 mph 233° @ 1213 AM 86 59 60 11 29.78" 0 0.00 567 7
Childress 2NNE  01:20 PM 89 24 9% W2228 35 mph 263° @ 1220 PM 90 49 100 9 29.73" 0 0.00 534 40
Clarendon 2WSW  01:20 PM 85 21 10% W2736 36 mph 254° @ 0120 PM 85 53 76 10 29.74" 0 0.00 457 35
Claude 12SW  01:20 PM 82 19 10% W1726 40 mph 270° @ 1010 AM 82 61 48 10 29.78" 0 0.00 606 25
Crowell 1E  01:20 PM 86 44 23% SW1418 24 mph 230° @ 0950 AM 87 48 100 23 29.74" 0 0.00 318  
Denver City 7WNW  01:20 PM 82 23 11% SW2431 31 mph 239° @ 0120 PM 83 46 87 11 29.89" 0 0.00 545 45
Dimmitt 2NE  01:20 PM 78 24 13% SW3037 39 mph 244° @ 0115 PM 78 50 71 13 29.83" 0 0.00 487 45
Dora NM 2SW  01:20 PM 83 19 9% SW1927 31 mph 255° @ 1240 PM 83 51 58 9 29.89" 0 0.00 625 5
Floydada 2NNE  01:20 PM 82 28 14% SW1518 25 mph 227° @ 0110 PM 83 48 87 14 29.82" 0 0.00 385  
Fluvanna 3WNW  01:20 PM 81 44 27% SW1317 21 mph 219° @ 1215 PM 82 53 93 27 29.85" 0 0.00 546  
Friona 2NE  01:20 PM 79 20 11% W3040 40 mph 248° @ 0105 PM 79 47 80 11 29.84" 0 0.00 399 75
Gail 2ESE  01:20 PM 86 43 23% S1522 22 mph 199° @ 0120 PM 86 51 93 24 29.84" 0 0.00 587  
Goodlett 3W  01:20 PM 90 29 11% SW2126 30 mph 246° @ 1210 PM 90 47 97 11 29.70" 0 0.00 654 5
Graham 5SSW  01:15 PM 85 38 19% SW1420 22 mph 223° @ 1255 PM 85 52 89 19 29.84" 0 0.00 607  
Guthrie 10WSW  01:20 PM 85 39 20% SW1521 24 mph 234° @ 0935 AM 85 52 86 20 29.78" 0 0.00 597  
Happy 1E  01:20 PM 80 24 13% W3034 43 mph 271° @ 1142 AM 80 42 85 12 29.81" 0 0.00 630 108
Hart 3N  01:20 PM 80 23 12% W2736 43 mph 253° @ 1255 PM 80 42 88 12 29.83" 0 0.00 618 55
Haskell 1NW  01:20 PM 83 50 34% SW1317 24 mph 220° @ 1120 AM 83 55 100 34 29.79" 0 0.00 625  
Hereford 2NW  01:20 PM 81 20 10% W3038 38 mph 259° @ 0120 PM 81 45 76 10 29.82" 0 0.00 571 125
Hobbs NM 5NW  01:20 PM 80 23 12% SW1924 32 mph 259° @ 1154 AM 81 46 97 11 29.94" 0 0.00 534 70
Jayton 1SSE  01:20 PM 83 45 26% SW1115 20 mph 241° @ 1215 PM 83 53 91 26 29.81" 0 0.00 609  
Knox City 3NW  01:20 PM 84 48 29% SW1822 25 mph 207° @ 0115 PM 84 54 89 29 29.77" 0 0.00 592  
Lake Alan Henry 1NW  01:20 PM 85 43 23% W1113 24 mph 237° @ 0246 AM 85 57 84 22 29.82" 0 0.00 647  
Lamesa 2SE  01:20 PM 83 35 18% SW2230 30 mph 225° @ 0115 PM 85 46 99 15 29.87" 0 0.00 549  
Levelland 4S  01:20 PM 85 24 11% SW1622 23 mph 236° @ 1220 PM 85 48 83 11 29.85" 0 0.00 506  
Lubbock 3WNW TTU  01:20 PM 87 26 11% SW1421 22 mph 235° @ 0105 PM 87 46 96 11 29.84" 0 0.00 673  
Memphis 1NE  01:20 PM 87 24 10% SW2027 33 mph 243° @ 1240 PM 87 39 99 10 29.72" 0 0.00 427  
Morton 1ENE  01:20 PM 84 20 9% SW1623 23 mph 221° @ 0120 PM 84 50 73 9 29.87" 0 0.00 609  
Muleshoe 2SSW  01:20 PM 82 19 9% W2432 36 mph 256° @ 1250 PM 82 40 92 9 29.86" 0 0.00 675 75
New Home  01:20 PM 86 32 15% SW1418 26 mph 222° @ 0111 PM 86 49 89 14 29.86" 0 0.00 675  
Northfield 1S  01:20 PM 89 23 9% SW2027 30 mph 246° @ 1205 PM 91 53 80 8 29.74" 0 0.00 379  
O'Donnell 1N  01:20 PM 86 26 11% SW2328 31 mph 244° @ 0110 PM 86 46 100 11 29.86" 0 0.00 558 20
Odell 4ENE  01:20 PM 85 45 25% S1214 26 mph 217° @ 1047 AM 86 55 100 23 29.72" 0 0.00 361  
Olton 6S  01:20 PM 83 21 10% W2737 37 mph 254° @ 0120 PM 83 41 89 10 29.84" 0 0.00 608 70
Paducah 10SW  01:20 PM 83 42 24% SW1218 26 mph 263° @ 1115 AM 87 53 87 14 29.77" 0 0.00 383  
Palo Duro 4E (JA Ranch)  01:20 PM 89 22 9% W2838 38 mph 249° @ 0120 PM 89 44 91 8 29.74" 0 0.00 640 66
Palo Duro Canyon SP Floor  01:20 PM 86 23 10% W1625 30 mph 276° @ 1145 AM 87 58 59 9 29.76" 0 0.00 593  
Palo Duro Canyon State Park Rim  01:20 PM 83 21 10% W2229 35 mph 257° @ 1257 PM 83 55 64 10 29.80" 0 0.00 612 48
Plains 3N  01:20 PM 85 23 10% SW2025 25 mph 246° @ 0115 PM 85 45 94 10 29.89" 0 0.00 566  
Plainview 1S  01:20 PM 83 25 12% W1826 32 mph 247° @ 1255 PM 83 42 90 12 29.82" 0 0.00 621  
Post 1NE  01:20 PM 85 38 19% SW1721 25 mph 238° @ 1250 PM 85 54 81 19 29.82" 0 0.00 646  
Ralls 1SE  01:20 PM 85 28 13% SW1620 25 mph 246° @ 1240 PM 85 47 86 13 29.84" 0 0.00 652  
Reese Center  01:20 PM 85 25 12% SW1622 27 mph 242° @ 0115 PM 85 44 94 12 29.84" 0 0.00 676  
Roaring Springs 3N  01:20 PM 84 35 18% SW1317 29 mph 254° @ 1100 AM 85 55 81 14 29.80" 0 0.00 606  
Seagraves 1SW  01:20 PM 85 26 12% SW2027 31 mph 235° @ 0105 PM 85 49 92 11 29.88" 0 0.00 572  
Seminole 2NNE  01:20 PM 83 25 12% SW1927 29 mph 236° @ 0115 PM 84 50 89 12 29.89" 0 0.00 594  
Seymour 3NW  01:20 PM 81 53 38% SW1723 27 mph 212° @ 1055 AM 81 55 94 38 29.75" 0 0.00 586  
Silverton 7ESE  01:20 PM 84 22 10% W2636 36 mph 264° @ 0120 PM 84 49 76 10 29.80" 0 0.00 636 70
Slaton 2NE  01:20 PM 86 27 12% SW1522 28 mph 232° @ 1135 AM 86 51 82 12 29.84" 0 0.00 603  
Snyder 3E  01:20 PM 83 48 30% SW1115 23 mph 211° @ 0110 PM 83 52 100 30 29.85" 0.01 0.01 565  
Snyder 3SSW  01:20 PM 83 49 31% SW1519 23 mph 205° @ 0116 PM 83 51 100 31 29.85" 0 0.00 667  
Spur 1W  01:20 PM 83 39 21% SW1422 24 mph 243° @ 0115 PM 83 51 85 20 29.79" 0 0.00 604  
Stamford 5ESE  01:20 PM 86 53 32% SW1518 22 mph 222° @ 1137 AM 86 54 98 31 29.80" 0 0.00 588  
Sundown 8WSW  01:20 PM 86 24 11% SW1722 26 mph 227° @ 0110 PM 86 51 81 10 29.87" 0 0.00 531  
Tahoka 3NNE  01:20 PM 87 29 12% SW1722 24 mph 236° @ 1206 PM 87 47 91 12 29.85" 0 0.00 644  
Tatum NM 2SW  01:20 PM 83 25 12% SW2026 28 mph 244° @ 1020 AM 83 44 89 12 29.91" 0 0.00 612  
Throckmorton 1SW  01:20 PM 82 58 45% SW1014 28 mph 217° @ 1046 AM 82 56 99 44 29.79" 0 0.00 374  
Tulia 2ENE  01:20 PM 80 29 16% W2631 37 mph 247° @ 0105 PM 80 47 84 16 29.82" 0 0.00 532  
Turkey 2WSW  01:20 PM 85 30 14% SW1418 32 mph 250° @ 1155 AM 85 56 68 13 29.76" 0 0.00 383 10
Umbarger 3NNE  01:15 PM 81 20 10% W2933 41 mph 265° @ 0110 PM 81 44 83 10 29.80" 0 0.00 614 85
Vigo Park  01:20 PM 82 24 12% W2732 40 mph 261° @ 0115 PM 84 46 82 11 29.82" 0 0.00 532 35
Weinert 2NNE  01:20 PM 83 54 37% SW1215 26 mph 225° @ 1040 AM 84 56 93 36 29.79" 0 0.00 680  
Welch  01:20 PM 84 34 16% SW2126 31 mph 240° @ 1159 AM 86 48 95 15 29.87" 0 0.00 659 12
White River Lake 6NW  01:20 PM 87 30 13% SW1323 25 mph 230° @ 0215 AM 87 53 80 15 29.81" 0 0.00 631  
Wolfforth 6SSW  01:20 PM 86 26 11% SW1621 26 mph 223° @ 1250 PM 86 47 90 11 29.85" 0 0.00 578  

West Texas Mesonet Home   Site Map/Menu  NWS Lubbock Soil Data  Daily Summary Page  24hr Precip  72hr Precip  Google Plot